sensor_id;sensor_type;location;lat;lon;timestamp;P1;durP1;ratioP1;P2;durP2;ratioP2
19887;SDS011;10106;51.332;12.336;2023-02-15T00:01:50;30.63;;;13.60;;
19887;SDS011;10106;51.332;12.336;2023-02-15T00:04:18;24.07;;;11.03;;
19887;SDS011;10106;51.332;12.336;2023-02-15T00:09:24;37.47;;;13.67;;
19887;SDS011;10106;51.332;12.336;2023-02-15T00:11:49;32.77;;;12.00;;
19887;SDS011;10106;51.332;12.336;2023-02-15T00:14:17;36.33;;;14.40;;
19887;SDS011;10106;51.332;12.336;2023-02-15T00:16:47;29.37;;;13.13;;
19887;SDS011;10106;51.332;12.336;2023-02-15T00:19:15;39.27;;;14.47;;
19887;SDS011;10106;51.332;12.336;2023-02-15T00:21:41;35.67;;;13.23;;
19887;SDS011;10106;51.332;12.336;2023-02-15T00:24:09;26.20;;;11.73;;
19887;SDS011;10106;51.332;12.336;2023-02-15T00:26:37;30.10;;;13.97;;
19887;SDS011;10106;51.332;12.336;2023-02-15T00:29:04;24.00;;;11.30;;
19887;SDS011;10106;51.332;12.336;2023-02-15T00:31:31;31.40;;;12.43;;
19887;SDS011;10106;51.332;12.336;2023-02-15T00:34:04;28.83;;;10.93;;
19887;SDS011;10106;51.332;12.336;2023-02-15T00:36:39;32.10;;;12.77;;
19887;SDS011;10106;51.332;12.336;2023-02-15T00:39:04;37.87;;;12.13;;
19887;SDS011;10106;51.332;12.336;2023-02-15T00:41:33;28.27;;;11.33;;
19887;SDS011;10106;51.332;12.336;2023-02-15T00:43:59;31.37;;;12.63;;
19887;SDS011;10106;51.332;12.336;2023-02-15T00:46:25;30.60;;;10.53;;
19887;SDS011;10106;51.332;12.336;2023-02-15T00:48:51;27.77;;;11.10;;
19887;SDS011;10106;51.332;12.336;2023-02-15T00:51:17;30.70;;;12.07;;
19887;SDS011;10106;51.332;12.336;2023-02-15T00:53:43;32.17;;;12.40;;
19887;SDS011;10106;51.332;12.336;2023-02-15T00:56:12;52.13;;;13.50;;
19887;SDS011;10106;51.332;12.336;2023-02-15T00:58:37;36.00;;;11.93;;
19887;SDS011;10106;51.332;12.336;2023-02-15T01:01:07;26.37;;;11.97;;
19887;SDS011;10106;51.332;12.336;2023-02-15T01:03:35;28.00;;;12.07;;
19887;SDS011;10106;51.332;12.336;2023-02-15T01:06:00;37.00;;;13.27;;
19887;SDS011;10106;51.332;12.336;2023-02-15T01:08:26;37.07;;;13.53;;
19887;SDS011;10106;51.332;12.336;2023-02-15T01:10:52;30.80;;;12.73;;
19887;SDS011;10106;51.332;12.336;2023-02-15T01:13:18;27.10;;;11.20;;
19887;SDS011;10106;51.332;12.336;2023-02-15T01:15:44;35.17;;;11.47;;
19887;SDS011;10106;51.332;12.336;2023-02-15T01:18:11;31.47;;;10.63;;
19887;SDS011;10106;51.332;12.336;2023-02-15T01:20:38;26.00;;;11.03;;
19887;SDS011;10106;51.332;12.336;2023-02-15T01:23:06;36.70;;;13.83;;
19887;SDS011;10106;51.332;12.336;2023-02-15T01:25:33;32.53;;;12.07;;
19887;SDS011;10106;51.332;12.336;2023-02-15T01:27:59;28.97;;;11.93;;
19887;SDS011;10106;51.332;12.336;2023-02-15T01:30:25;34.53;;;12.57;;
19887;SDS011;10106;51.332;12.336;2023-02-15T01:32:51;27.13;;;11.20;;
19887;SDS011;10106;51.332;12.336;2023-02-15T01:35:17;29.20;;;11.30;;
19887;SDS011;10106;51.332;12.336;2023-02-15T01:37:43;24.63;;;10.40;;
19887;SDS011;10106;51.332;12.336;2023-02-15T01:40:12;25.63;;;11.00;;
19887;SDS011;10106;51.332;12.336;2023-02-15T01:42:39;23.03;;;10.40;;
19887;SDS011;10106;51.332;12.336;2023-02-15T01:48:05;32.90;;;15.70;;
19887;SDS011;10106;51.332;12.336;2023-02-15T01:50:53;32.97;;;12.70;;
19887;SDS011;10106;51.332;12.336;2023-02-15T01:53:23;29.43;;;10.63;;
19887;SDS011;10106;51.332;12.336;2023-02-15T01:55:53;28.33;;;11.10;;
19887;SDS011;10106;51.332;12.336;2023-02-15T01:58:24;26.87;;;11.13;;
19887;SDS011;10106;51.332;12.336;2023-02-15T02:00:52;24.17;;;9.80;;
19887;SDS011;10106;51.332;12.336;2023-02-15T02:03:26;25.00;;;10.77;;
19887;SDS011;10106;51.332;12.336;2023-02-15T02:06:13;26.23;;;9.67;;
19887;SDS011;10106;51.332;12.336;2023-02-15T02:08:40;20.50;;;9.53;;
19887;SDS011;10106;51.332;12.336;2023-02-15T02:11:11;21.00;;;10.83;;
19887;SDS011;10106;51.332;12.336;2023-02-15T02:13:38;27.93;;;12.30;;
19887;SDS011;10106;51.332;12.336;2023-02-15T02:16:10;32.33;;;11.60;;
19887;SDS011;10106;51.332;12.336;2023-02-15T02:21:27;19.90;;;9.43;;
19887;SDS011;10106;51.332;12.336;2023-02-15T02:35:00;17.40;;;8.20;;
19887;SDS011;10106;51.332;12.336;2023-02-15T02:37:41;21.83;;;10.47;;
19887;SDS011;10106;51.332;12.336;2023-02-15T02:42:58;20.50;;;9.90;;
19887;SDS011;10106;51.332;12.336;2023-02-15T02:45:40;21.43;;;9.33;;
19887;SDS011;10106;51.332;12.336;2023-02-15T02:48:17;25.47;;;11.83;;
19887;SDS011;10106;51.332;12.336;2023-02-15T02:50:46;21.00;;;10.70;;
19887;SDS011;10106;51.332;12.336;2023-02-15T02:53:12;17.43;;;9.20;;
19887;SDS011;10106;51.332;12.336;2023-02-15T02:55:48;21.33;;;9.70;;
19887;SDS011;10106;51.332;12.336;2023-02-15T02:58:17;19.17;;;8.73;;
19887;SDS011;10106;51.332;12.336;2023-02-15T03:00:53;22.73;;;10.47;;
19887;SDS011;10106;51.332;12.336;2023-02-15T03:05:47;23.40;;;9.03;;
19887;SDS011;10106;51.332;12.336;2023-02-15T03:08:17;16.70;;;8.00;;
19887;SDS011;10106;51.332;12.336;2023-02-15T03:10:47;16.67;;;9.10;;
19887;SDS011;10106;51.332;12.336;2023-02-15T03:13:16;21.93;;;9.13;;
19887;SDS011;10106;51.332;12.336;2023-02-15T03:15:42;14.20;;;8.87;;
19887;SDS011;10106;51.332;12.336;2023-02-15T03:18:30;14.87;;;7.60;;
19887;SDS011;10106;51.332;12.336;2023-02-15T03:21:01;16.53;;;8.87;;
19887;SDS011;10106;51.332;12.336;2023-02-15T03:23:27;17.43;;;8.80;;
19887;SDS011;10106;51.332;12.336;2023-02-15T03:25:59;23.10;;;10.27;;
19887;SDS011;10106;51.332;12.336;2023-02-15T03:28:41;22.10;;;10.67;;
19887;SDS011;10106;51.332;12.336;2023-02-15T03:31:08;19.90;;;9.00;;
19887;SDS011;10106;51.332;12.336;2023-02-15T03:33:39;23.20;;;9.23;;
19887;SDS011;10106;51.332;12.336;2023-02-15T03:36:11;14.67;;;7.63;;
19887;SDS011;10106;51.332;12.336;2023-02-15T03:38:51;20.40;;;9.20;;
19887;SDS011;10106;51.332;12.336;2023-02-15T03:44:33;15.50;;;8.20;;
19887;SDS011;10106;51.332;12.336;2023-02-15T03:47:23;17.63;;;7.70;;
19887;SDS011;10106;51.332;12.336;2023-02-15T03:49:55;18.13;;;7.77;;
19887;SDS011;10106;51.332;12.336;2023-02-15T03:52:23;17.57;;;9.30;;
19887;SDS011;10106;51.332;12.336;2023-02-15T03:54:50;12.50;;;7.80;;
19887;SDS011;10106;51.332;12.336;2023-02-15T04:00:09;22.63;;;8.23;;
19887;SDS011;10106;51.332;12.336;2023-02-15T04:03:03;16.27;;;8.77;;
19887;SDS011;10106;51.332;12.336;2023-02-15T04:05:49;19.13;;;7.93;;
19887;SDS011;10106;51.332;12.336;2023-02-15T04:08:14;20.97;;;8.90;;
19887;SDS011;10106;51.332;12.336;2023-02-15T04:10:40;17.17;;;7.00;;
19887;SDS011;10106;51.332;12.336;2023-02-15T04:13:21;20.67;;;10.00;;
19887;SDS011;10106;51.332;12.336;2023-02-15T04:15:49;20.50;;;7.60;;
19887;SDS011;10106;51.332;12.336;2023-02-15T04:18:28;21.57;;;8.47;;
19887;SDS011;10106;51.332;12.336;2023-02-15T04:21:21;22.93;;;8.10;;
19887;SDS011;10106;51.332;12.336;2023-02-15T04:24:07;11.33;;;6.83;;
19887;SDS011;10106;51.332;12.336;2023-02-15T04:26:51;16.80;;;8.17;;
19887;SDS011;10106;51.332;12.336;2023-02-15T04:29:18;15.63;;;7.53;;
19887;SDS011;10106;51.332;12.336;2023-02-15T04:31:44;16.30;;;8.97;;
19887;SDS011;10106;51.332;12.336;2023-02-15T04:34:10;18.50;;;8.13;;
19887;SDS011;10106;51.332;12.336;2023-02-15T04:36:36;20.70;;;8.70;;
19887;SDS011;10106;51.332;12.336;2023-02-15T04:39:02;19.73;;;8.27;;
19887;SDS011;10106;51.332;12.336;2023-02-15T04:41:29;24.53;;;8.77;;
19887;SDS011;10106;51.332;12.336;2023-02-15T04:43:54;18.73;;;8.53;;
19887;SDS011;10106;51.332;12.336;2023-02-15T04:46:21;18.00;;;7.50;;
19887;SDS011;10106;51.332;12.336;2023-02-15T04:48:47;18.97;;;7.60;;
19887;SDS011;10106;51.332;12.336;2023-02-15T04:51:12;14.57;;;7.87;;
19887;SDS011;10106;51.332;12.336;2023-02-15T04:53:38;15.57;;;7.50;;
19887;SDS011;10106;51.332;12.336;2023-02-15T04:56:03;25.13;;;8.30;;
19887;SDS011;10106;51.332;12.336;2023-02-15T04:58:29;17.40;;;8.57;;
19887;SDS011;10106;51.332;12.336;2023-02-15T05:00:55;20.97;;;7.30;;
19887;SDS011;10106;51.332;12.336;2023-02-15T05:03:21;15.47;;;8.97;;
19887;SDS011;10106;51.332;12.336;2023-02-15T05:05:47;20.63;;;9.53;;
19887;SDS011;10106;51.332;12.336;2023-02-15T05:08:13;18.40;;;8.47;;
19887;SDS011;10106;51.332;12.336;2023-02-15T05:10:39;13.13;;;7.80;;
19887;SDS011;10106;51.332;12.336;2023-02-15T05:13:06;16.03;;;7.80;;
19887;SDS011;10106;51.332;12.336;2023-02-15T05:15:31;12.83;;;6.93;;
19887;SDS011;10106;51.332;12.336;2023-02-15T05:17:57;18.80;;;7.80;;
19887;SDS011;10106;51.332;12.336;2023-02-15T05:20:23;11.43;;;7.00;;
19887;SDS011;10106;51.332;12.336;2023-02-15T05:22:48;19.33;;;8.03;;
19887;SDS011;10106;51.332;12.336;2023-02-15T05:25:17;20.38;;;9.02;;
19887;SDS011;10106;51.332;12.336;2023-02-15T05:28:01;20.60;;;7.80;;
19887;SDS011;10106;51.332;12.336;2023-02-15T05:30:46;10.77;;;5.93;;
19887;SDS011;10106;51.332;12.336;2023-02-15T05:33:16;17.93;;;7.07;;
19887;SDS011;10106;51.332;12.336;2023-02-15T05:35:42;14.77;;;6.80;;
19887;SDS011;10106;51.332;12.336;2023-02-15T05:38:08;15.43;;;7.87;;
19887;SDS011;10106;51.332;12.336;2023-02-15T05:40:34;15.50;;;7.60;;
19887;SDS011;10106;51.332;12.336;2023-02-15T05:43:00;56.73;;;17.40;;
19887;SDS011;10106;51.332;12.336;2023-02-15T05:45:26;17.63;;;7.67;;
19887;SDS011;10106;51.332;12.336;2023-02-15T05:47:52;14.77;;;8.87;;
19887;SDS011;10106;51.332;12.336;2023-02-15T05:50:17;21.10;;;8.43;;
19887;SDS011;10106;51.332;12.336;2023-02-15T05:52:43;19.87;;;10.33;;
19887;SDS011;10106;51.332;12.336;2023-02-15T05:55:09;22.13;;;10.23;;
19887;SDS011;10106;51.332;12.336;2023-02-15T05:57:35;20.33;;;8.30;;
19887;SDS011;10106;51.332;12.336;2023-02-15T06:00:01;15.47;;;7.87;;
19887;SDS011;10106;51.332;12.336;2023-02-15T06:07:42;12.20;;;6.97;;
19887;SDS011;10106;51.332;12.336;2023-02-15T06:10:09;17.00;;;7.20;;
19887;SDS011;10106;51.332;12.336;2023-02-15T06:12:35;15.80;;;7.23;;
19887;SDS011;10106;51.332;12.336;2023-02-15T06:15:01;9.43;;;6.50;;
19887;SDS011;10106;51.332;12.336;2023-02-15T06:17:27;17.30;;;6.97;;
19887;SDS011;10106;51.332;12.336;2023-02-15T06:19:53;16.40;;;7.07;;
19887;SDS011;10106;51.332;12.336;2023-02-15T06:22:18;16.63;;;6.93;;
19887;SDS011;10106;51.332;12.336;2023-02-15T06:24:45;18.50;;;7.07;;
19887;SDS011;10106;51.332;12.336;2023-02-15T06:27:11;11.00;;;5.83;;
19887;SDS011;10106;51.332;12.336;2023-02-15T06:29:37;14.90;;;6.20;;
19887;SDS011;10106;51.332;12.336;2023-02-15T06:32:03;9.53;;;6.30;;
19887;SDS011;10106;51.332;12.336;2023-02-15T06:34:29;12.47;;;6.53;;
19887;SDS011;10106;51.332;12.336;2023-02-15T06:36:55;16.63;;;7.17;;
19887;SDS011;10106;51.332;12.336;2023-02-15T06:39:20;16.70;;;7.50;;
19887;SDS011;10106;51.332;12.336;2023-02-15T06:41:46;23.37;;;7.50;;
19887;SDS011;10106;51.332;12.336;2023-02-15T06:44:12;13.63;;;7.33;;
19887;SDS011;10106;51.332;12.336;2023-02-15T06:46:37;15.20;;;6.70;;
19887;SDS011;10106;51.332;12.336;2023-02-15T06:49:03;16.13;;;6.70;;
19887;SDS011;10106;51.332;12.336;2023-02-15T06:51:29;21.80;;;7.43;;
19887;SDS011;10106;51.332;12.336;2023-02-15T06:53:54;13.77;;;6.90;;
19887;SDS011;10106;51.332;12.336;2023-02-15T06:56:20;11.00;;;7.10;;
19887;SDS011;10106;51.332;12.336;2023-02-15T06:58:46;11.77;;;6.10;;
19887;SDS011;10106;51.332;12.336;2023-02-15T07:01:14;11.93;;;5.33;;
19887;SDS011;10106;51.332;12.336;2023-02-15T07:03:40;15.03;;;5.43;;
19887;SDS011;10106;51.332;12.336;2023-02-15T07:06:05;10.87;;;5.67;;
19887;SDS011;10106;51.332;12.336;2023-02-15T07:08:33;13.23;;;4.83;;
19887;SDS011;10106;51.332;12.336;2023-02-15T07:11:00;11.03;;;5.77;;
19887;SDS011;10106;51.332;12.336;2023-02-15T07:13:45;18.00;;;7.47;;
19887;SDS011;10106;51.332;12.336;2023-02-15T07:16:11;14.57;;;7.57;;
19887;SDS011;10106;51.332;12.336;2023-02-15T07:18:38;13.93;;;6.13;;
19887;SDS011;10106;51.332;12.336;2023-02-15T07:21:04;8.87;;;5.93;;
19887;SDS011;10106;51.332;12.336;2023-02-15T07:23:32;13.33;;;5.37;;
19887;SDS011;10106;51.332;12.336;2023-02-15T07:26:02;12.63;;;6.67;;
19887;SDS011;10106;51.332;12.336;2023-02-15T07:28:29;9.17;;;6.00;;
19887;SDS011;10106;51.332;12.336;2023-02-15T07:30:55;11.70;;;6.40;;
19887;SDS011;10106;51.332;12.336;2023-02-15T07:33:22;12.30;;;6.40;;
19887;SDS011;10106;51.332;12.336;2023-02-15T07:35:48;15.27;;;6.17;;
19887;SDS011;10106;51.332;12.336;2023-02-15T07:38:15;12.23;;;7.20;;
19887;SDS011;10106;51.332;12.336;2023-02-15T07:40:41;15.13;;;7.83;;
19887;SDS011;10106;51.332;12.336;2023-02-15T07:43:07;16.93;;;8.90;;
19887;SDS011;10106;51.332;12.336;2023-02-15T07:45:34;13.20;;;7.43;;
19887;SDS011;10106;51.332;12.336;2023-02-15T07:48:00;12.97;;;7.53;;
19887;SDS011;10106;51.332;12.336;2023-02-15T07:50:26;12.37;;;7.40;;
19887;SDS011;10106;51.332;12.336;2023-02-15T07:52:52;17.47;;;8.50;;
19887;SDS011;10106;51.332;12.336;2023-02-15T07:55:18;10.73;;;6.50;;
19887;SDS011;10106;51.332;12.336;2023-02-15T07:57:44;10.93;;;6.60;;
19887;SDS011;10106;51.332;12.336;2023-02-15T08:00:11;10.83;;;6.87;;
19887;SDS011;10106;51.332;12.336;2023-02-15T08:02:38;14.87;;;7.20;;
19887;SDS011;10106;51.332;12.336;2023-02-15T08:05:04;10.10;;;6.73;;
19887;SDS011;10106;51.332;12.336;2023-02-15T08:07:30;12.87;;;6.37;;
19887;SDS011;10106;51.332;12.336;2023-02-15T08:09:56;14.27;;;6.80;;
19887;SDS011;10106;51.332;12.336;2023-02-15T08:12:21;15.60;;;6.37;;
19887;SDS011;10106;51.332;12.336;2023-02-15T08:14:47;9.53;;;6.20;;
19887;SDS011;10106;51.332;12.336;2023-02-15T08:17:13;11.40;;;6.27;;
19887;SDS011;10106;51.332;12.336;2023-02-15T08:19:39;11.70;;;6.60;;
19887;SDS011;10106;51.332;12.336;2023-02-15T08:22:06;9.10;;;6.67;;
19887;SDS011;10106;51.332;12.336;2023-02-15T08:24:33;8.10;;;6.00;;
19887;SDS011;10106;51.332;12.336;2023-02-15T08:27:01;10.80;;;6.80;;
19887;SDS011;10106;51.332;12.336;2023-02-15T08:29:30;10.33;;;6.33;;
19887;SDS011;10106;51.332;12.336;2023-02-15T08:31:58;16.03;;;8.03;;
19887;SDS011;10106;51.332;12.336;2023-02-15T08:34:27;10.40;;;7.47;;
19887;SDS011;10106;51.332;12.336;2023-02-15T08:36:54;9.40;;;6.40;;
19887;SDS011;10106;51.332;12.336;2023-02-15T08:39:20;12.23;;;7.07;;
19887;SDS011;10106;51.332;12.336;2023-02-15T08:41:46;14.03;;;7.13;;
19887;SDS011;10106;51.332;12.336;2023-02-15T08:44:14;13.93;;;6.97;;
19887;SDS011;10106;51.332;12.336;2023-02-15T08:46:42;8.37;;;6.50;;
19887;SDS011;10106;51.332;12.336;2023-02-15T08:49:09;15.50;;;6.77;;
19887;SDS011;10106;51.332;12.336;2023-02-15T08:51:40;10.47;;;7.27;;
19887;SDS011;10106;51.332;12.336;2023-02-15T08:54:07;13.53;;;6.17;;
19887;SDS011;10106;51.332;12.336;2023-02-15T08:56:36;14.53;;;7.53;;
19887;SDS011;10106;51.332;12.336;2023-02-15T08:59:03;9.80;;;6.57;;
19887;SDS011;10106;51.332;12.336;2023-02-15T09:01:31;10.93;;;6.50;;
19887;SDS011;10106;51.332;12.336;2023-02-15T09:03:59;6.90;;;5.13;;
19887;SDS011;10106;51.332;12.336;2023-02-15T09:06:25;12.47;;;7.40;;
19887;SDS011;10106;51.332;12.336;2023-02-15T09:08:52;10.03;;;5.40;;
19887;SDS011;10106;51.332;12.336;2023-02-15T09:11:20;10.38;;;6.40;;
19887;SDS011;10106;51.332;12.336;2023-02-15T09:13:58;9.98;;;7.35;;
19887;SDS011;10106;51.332;12.336;2023-02-15T09:16:26;11.80;;;7.00;;
19887;SDS011;10106;51.332;12.336;2023-02-15T09:18:54;11.85;;;8.55;;
19887;SDS011;10106;51.332;12.336;2023-02-15T09:21:22;10.57;;;7.70;;
19887;SDS011;10106;51.332;12.336;2023-02-15T09:23:50;14.75;;;8.43;;
19887;SDS011;10106;51.332;12.336;2023-02-15T09:26:20;12.40;;;7.77;;
19887;SDS011;10106;51.332;12.336;2023-02-15T09:28:50;7.70;;;5.93;;
19887;SDS011;10106;51.332;12.336;2023-02-15T09:31:19;7.97;;;5.50;;
19887;SDS011;10106;51.332;12.336;2023-02-15T09:33:47;9.33;;;5.30;;
19887;SDS011;10106;51.332;12.336;2023-02-15T09:36:22;11.10;;;6.07;;
19887;SDS011;10106;51.332;12.336;2023-02-15T09:39:00;7.33;;;5.20;;
19887;SDS011;10106;51.332;12.336;2023-02-15T09:48:06;11.63;;;6.93;;
19887;SDS011;10106;51.332;12.336;2023-02-15T09:56:11;7.63;;;5.23;;
19887;SDS011;10106;51.332;12.336;2023-02-15T10:06:58;15.60;;;6.03;;
19887;SDS011;10106;51.332;12.336;2023-02-15T10:12:20;7.33;;;5.20;;
19887;SDS011;10106;51.332;12.336;2023-02-15T10:26:20;13.13;;;5.53;;
19887;SDS011;10106;51.332;12.336;2023-02-15T10:29:30;7.57;;;4.33;;
19887;SDS011;10106;51.332;12.336;2023-02-15T10:32:10;7.50;;;3.97;;
19887;SDS011;10106;51.332;12.336;2023-02-15T10:42:57;3.10;;;2.83;;
19887;SDS011;10106;51.332;12.336;2023-02-15T10:48:25;6.53;;;4.10;;
19887;SDS011;10106;51.332;12.336;2023-02-15T10:51:02;5.57;;;3.90;;
19887;SDS011;10106;51.332;12.336;2023-02-15T10:59:46;7.10;;;3.70;;
19887;SDS011;10106;51.332;12.336;2023-02-15T11:01:54;5.30;;;3.30;;
19887;SDS011;10106;51.332;12.336;2023-02-15T11:07:34;14.10;;;4.33;;
19887;SDS011;10106;51.332;12.336;2023-02-15T11:13:11;8.13;;;4.27;;
19887;SDS011;10106;51.332;12.336;2023-02-15T11:20:56;6.40;;;4.20;;
19887;SDS011;10106;51.332;12.336;2023-02-15T11:23:25;8.70;;;3.87;;
19887;SDS011;10106;51.332;12.336;2023-02-15T11:25:54;7.10;;;4.30;;
19887;SDS011;10106;51.332;12.336;2023-02-15T11:28:27;7.03;;;3.93;;
19887;SDS011;10106;51.332;12.336;2023-02-15T11:30:57;5.50;;;3.60;;
19887;SDS011;10106;51.332;12.336;2023-02-15T11:33:32;5.37;;;4.00;;
19887;SDS011;10106;51.332;12.336;2023-02-15T11:36:08;4.87;;;3.93;;
19887;SDS011;10106;51.332;12.336;2023-02-15T11:38:51;4.20;;;3.50;;
19887;SDS011;10106;51.332;12.336;2023-02-15T11:41:24;7.00;;;4.37;;
19887;SDS011;10106;51.332;12.336;2023-02-15T11:44:13;7.60;;;4.63;;
19887;SDS011;10106;51.332;12.336;2023-02-15T11:46:42;5.07;;;3.97;;
19887;SDS011;10106;51.332;12.336;2023-02-15T11:49:41;6.00;;;3.90;;
19887;SDS011;10106;51.332;12.336;2023-02-15T11:52:00;5.97;;;4.27;;
19887;SDS011;10106;51.332;12.336;2023-02-15T11:54:30;6.83;;;4.27;;
19887;SDS011;10106;51.332;12.336;2023-02-15T11:57:03;5.17;;;4.33;;
19887;SDS011;10106;51.332;12.336;2023-02-15T11:59:38;6.00;;;4.23;;
19887;SDS011;10106;51.332;12.336;2023-02-15T12:02:16;6.90;;;4.90;;
19887;SDS011;10106;51.332;12.336;2023-02-15T12:04:44;6.60;;;3.97;;
19887;SDS011;10106;51.332;12.336;2023-02-15T12:07:35;6.53;;;4.57;;
19887;SDS011;10106;51.332;12.336;2023-02-15T12:10:15;8.67;;;4.77;;
19887;SDS011;10106;51.332;12.336;2023-02-15T12:12:45;11.30;;;5.33;;
19887;SDS011;10106;51.332;12.336;2023-02-15T12:15:11;11.20;;;5.27;;
19887;SDS011;10106;51.332;12.336;2023-02-15T12:17:51;8.77;;;5.33;;
19887;SDS011;10106;51.332;12.336;2023-02-15T12:22:50;10.63;;;4.50;;
19887;SDS011;10106;51.332;12.336;2023-02-15T12:28:02;7.33;;;4.07;;
19887;SDS011;10106;51.332;12.336;2023-02-15T12:30:34;5.33;;;4.13;;
19887;SDS011;10106;51.332;12.336;2023-02-15T12:35:45;6.13;;;4.10;;
19887;SDS011;10106;51.332;12.336;2023-02-15T12:40:40;7.80;;;4.77;;
19887;SDS011;10106;51.332;12.336;2023-02-15T12:43:23;9.83;;;4.10;;
19887;SDS011;10106;51.332;12.336;2023-02-15T12:46:14;4.73;;;4.17;;
19887;SDS011;10106;51.332;12.336;2023-02-15T12:51:45;5.63;;;3.90;;
19887;SDS011;10106;51.332;12.336;2023-02-15T12:56:48;7.47;;;4.13;;
19887;SDS011;10106;51.332;12.336;2023-02-15T12:59:14;5.30;;;3.97;;
19887;SDS011;10106;51.332;12.336;2023-02-15T13:01:45;6.53;;;3.63;;
19887;SDS011;10106;51.332;12.336;2023-02-15T13:04:25;4.30;;;3.33;;
19887;SDS011;10106;51.332;12.336;2023-02-15T13:06:57;8.27;;;3.80;;
19887;SDS011;10106;51.332;12.336;2023-02-15T13:09:35;5.80;;;3.77;;
19887;SDS011;10106;51.332;12.336;2023-02-15T13:12:20;5.07;;;3.47;;
19887;SDS011;10106;51.332;12.336;2023-02-15T13:14:51;6.90;;;4.03;;
19887;SDS011;10106;51.332;12.336;2023-02-15T13:17:21;5.73;;;3.53;;
19887;SDS011;10106;51.332;12.336;2023-02-15T13:19:55;5.97;;;3.87;;
19887;SDS011;10106;51.332;12.336;2023-02-15T13:22:27;11.93;;;3.80;;
19887;SDS011;10106;51.332;12.336;2023-02-15T13:25:02;3.70;;;3.20;;
19887;SDS011;10106;51.332;12.336;2023-02-15T13:27:36;4.73;;;3.60;;
19887;SDS011;10106;51.332;12.336;2023-02-15T13:30:17;6.33;;;4.07;;
19887;SDS011;10106;51.332;12.336;2023-02-15T13:33:36;6.70;;;3.67;;
19887;SDS011;10106;51.332;12.336;2023-02-15T13:35:42;5.17;;;4.10;;
19887;SDS011;10106;51.332;12.336;2023-02-15T13:41:16;4.40;;;3.70;;
19887;SDS011;10106;51.332;12.336;2023-02-15T13:58:01;5.73;;;3.70;;
19887;SDS011;10106;51.332;12.336;2023-02-15T14:00:49;3.23;;;2.90;;
19887;SDS011;10106;51.332;12.336;2023-02-15T14:17:29;4.47;;;3.50;;
19887;SDS011;10106;51.332;12.336;2023-02-15T14:29:03;4.50;;;2.90;;
19887;SDS011;10106;51.332;12.336;2023-02-15T14:31:33;3.40;;;2.53;;
19887;SDS011;10106;51.332;12.336;2023-02-15T14:34:03;5.77;;;3.10;;
19887;SDS011;10106;51.332;12.336;2023-02-15T14:36:29;3.97;;;2.50;;
19887;SDS011;10106;51.332;12.336;2023-02-15T14:39:02;3.50;;;2.47;;
19887;SDS011;10106;51.332;12.336;2023-02-15T14:42:04;6.27;;;3.97;;
19887;SDS011;10106;51.332;12.336;2023-02-15T14:44:48;9.17;;;3.73;;
19887;SDS011;10106;51.332;12.336;2023-02-15T14:50:41;5.90;;;3.70;;
19887;SDS011;10106;51.332;12.336;2023-02-15T14:58:36;4.53;;;3.33;;
19887;SDS011;10106;51.332;12.336;2023-02-15T15:01:06;3.87;;;2.83;;
19887;SDS011;10106;51.332;12.336;2023-02-15T15:03:34;3.43;;;3.00;;
19887;SDS011;10106;51.332;12.336;2023-02-15T15:06:01;4.10;;;3.00;;
19887;SDS011;10106;51.332;12.336;2023-02-15T15:13:59;3.40;;;2.97;;
19887;SDS011;10106;51.332;12.336;2023-02-15T15:18:57;6.47;;;2.87;;
19887;SDS011;10106;51.332;12.336;2023-02-15T15:43:50;4.83;;;2.83;;
19887;SDS011;10106;51.332;12.336;2023-02-15T15:49:23;6.00;;;4.20;;
19887;SDS011;10106;51.332;12.336;2023-02-15T15:51:53;6.73;;;4.20;;
19887;SDS011;10106;51.332;12.336;2023-02-15T15:54:23;5.87;;;3.70;;
19887;SDS011;10106;51.332;12.336;2023-02-15T15:56:55;5.60;;;3.53;;
19887;SDS011;10106;51.332;12.336;2023-02-15T15:59:26;5.60;;;3.90;;
19887;SDS011;10106;51.332;12.336;2023-02-15T16:01:54;3.97;;;3.40;;
19887;SDS011;10106;51.332;12.336;2023-02-15T16:06:50;8.40;;;5.60;;
19887;SDS011;10106;51.332;12.336;2023-02-15T16:11:42;6.10;;;3.60;;
19887;SDS011;10106;51.332;12.336;2023-02-15T16:14:16;6.03;;;3.70;;
19887;SDS011;10106;51.332;12.336;2023-02-15T16:17:01;59.77;;;7.67;;
19887;SDS011;10106;51.332;12.336;2023-02-15T16:19:32;27.57;;;7.30;;
19887;SDS011;10106;51.332;12.336;2023-02-15T16:22:00;15.57;;;5.90;;
19887;SDS011;10106;51.332;12.336;2023-02-15T16:24:37;16.77;;;7.47;;
19887;SDS011;10106;51.332;12.336;2023-02-15T16:29:41;8.53;;;5.10;;
19887;SDS011;10106;51.332;12.336;2023-02-15T16:34:55;13.03;;;6.73;;
19887;SDS011;10106;51.332;12.336;2023-02-15T16:37:24;6.70;;;5.10;;
19887;SDS011;10106;51.332;12.336;2023-02-15T16:39:52;13.73;;;4.63;;
19887;SDS011;10106;51.332;12.336;2023-02-15T16:42:21;7.27;;;4.63;;
19887;SDS011;10106;51.332;12.336;2023-02-15T16:44:51;11.30;;;5.17;;
19887;SDS011;10106;51.332;12.336;2023-02-15T16:47:24;8.20;;;5.13;;
19887;SDS011;10106;51.332;12.336;2023-02-15T16:49:52;9.63;;;4.97;;
19887;SDS011;10106;51.332;12.336;2023-02-15T16:52:22;10.93;;;4.40;;
19887;SDS011;10106;51.332;12.336;2023-02-15T16:54:53;5.73;;;4.00;;
19887;SDS011;10106;51.332;12.336;2023-02-15T16:57:26;12.10;;;5.67;;
19887;SDS011;10106;51.332;12.336;2023-02-15T17:00:00;11.10;;;5.10;;
19887;SDS011;10106;51.332;12.336;2023-02-15T17:02:31;8.03;;;5.00;;
19887;SDS011;10106;51.332;12.336;2023-02-15T17:07:33;15.03;;;5.80;;
19887;SDS011;10106;51.332;12.336;2023-02-15T17:10:16;13.97;;;4.97;;
19887;SDS011;10106;51.332;12.336;2023-02-15T17:12:54;9.20;;;5.50;;
19887;SDS011;10106;51.332;12.336;2023-02-15T17:15:29;15.75;;;7.07;;
19887;SDS011;10106;51.332;12.336;2023-02-15T17:18:15;9.40;;;4.93;;
19887;SDS011;10106;51.332;12.336;2023-02-15T17:20:45;10.03;;;5.37;;
19887;SDS011;10106;51.332;12.336;2023-02-15T17:26:00;13.57;;;7.00;;
19887;SDS011;10106;51.332;12.336;2023-02-15T17:28:36;13.33;;;6.37;;
19887;SDS011;10106;51.332;12.336;2023-02-15T17:31:02;13.90;;;6.30;;
19887;SDS011;10106;51.332;12.336;2023-02-15T17:38:36;15.83;;;7.30;;
19887;SDS011;10106;51.332;12.336;2023-02-15T17:41:24;10.70;;;6.40;;
19887;SDS011;10106;51.332;12.336;2023-02-15T17:43:52;17.33;;;7.37;;
19887;SDS011;10106;51.332;12.336;2023-02-15T17:46:18;12.37;;;6.60;;
19887;SDS011;10106;51.332;12.336;2023-02-15T17:48:49;13.37;;;7.03;;
19887;SDS011;10106;51.332;12.336;2023-02-15T17:51:16;14.63;;;7.30;;
19887;SDS011;10106;51.332;12.336;2023-02-15T17:53:43;14.50;;;8.30;;
19887;SDS011;10106;51.332;12.336;2023-02-15T17:56:29;15.90;;;7.50;;
19887;SDS011;10106;51.332;12.336;2023-02-15T17:58:56;14.20;;;6.37;;
19887;SDS011;10106;51.332;12.336;2023-02-15T18:01:21;16.43;;;6.97;;
19887;SDS011;10106;51.332;12.336;2023-02-15T18:04:10;13.20;;;6.10;;
19887;SDS011;10106;51.332;12.336;2023-02-15T18:06:56;13.80;;;6.93;;
19887;SDS011;10106;51.332;12.336;2023-02-15T18:09:41;21.80;;;9.73;;
19887;SDS011;10106;51.332;12.336;2023-02-15T18:12:26;14.30;;;6.50;;
19887;SDS011;10106;51.332;12.336;2023-02-15T18:14:57;16.30;;;7.43;;
19887;SDS011;10106;51.332;12.336;2023-02-15T18:17:26;13.27;;;6.77;;
19887;SDS011;10106;51.332;12.336;2023-02-15T18:19:57;13.37;;;7.37;;
19887;SDS011;10106;51.332;12.336;2023-02-15T18:22:26;12.83;;;7.53;;